GRAY/PORTLAND, ME

7:44 AM EDT on April 26, 2017 (GMT -0400)
KMENEWGL3 | | Change Station

Elev 115 ft 43.93 °N, 70.26 °W | Updated 4 minutes ago

Rain
Rain
44.1 °F
Feels Like 44 °F
N
1.0
Wind Variable Wind from North
Gusts 1.0 mph

Today
High -- | Low -- °F
--% Chance of Precip.
Yesterday
High -- | Low -- °F
Precip. -- in
Pressure 30.04 in
Visibility 1.5 miles
Clouds Overcast 300 ft
Windchill 44 °F
Dew Point 43 °F
Humidity 97%
Rainfall 0.38 in
Snow Depth Not available.
5:39 AM 7:38 PM
Waning Crescent, 0% visible
SPECI KLEW 261130Z AUTO 02008KT 1 1/2SM -RA BR OVC003 06/06 A3004 RMK AO2 P0000
Pressure 30.04 in
Visibility 1.5 miles
Clouds Overcast 300 ft
Windchill 44 °F
Dew Point 43 °F
Humidity 97%
Rainfall 0.38 in
Snow Depth Not available.
5:39 AM 7:38 PM
Waning Crescent, 0% visible
SPECI KLEW 261130Z AUTO 02008KT 1 1/2SM -RA BR OVC003 06/06 A3004 RMK AO2 P0000

Get Severe Weather Alerts

Thanks for signing up!

Be on the lookout for a verification email in your inbox.

You'll start receiving the daily forecast at 8 AM.

×

10-Day Weather Forecast

Almanac

Astronomy

Apr. 26, 2017 Rise Set
Actual Time
Civil Twilight
Nautical Twilight
Astronomical Twilight
Moon
Length of Visible Light
Length of Day
Tomorrow will be .
, % of the Moon is Illuminated

Today's Extremes

State Highs State Lows

Community

WunderPhotos

WunderBlog® & News

Nearby

Air Quality

  Air Quality AQ Index Pollutant
Not available.

Snow Depth

Station Depth Elevation

Earthquake Activity

City Distance Mag. Time & Date
Minimum magnitude displayed is 2.5.

Coastal Water Temperatures

Place Temperature

Stations

Nearby Weather Stations

Station Location Temp. Windchill Dew Point Humidity Wind Precip. Elev Updated Type
                   

Watches & Warnings

There are currently no watches in effect.